createdAt,value
2017-05-31T00:00:03.776Z,23.67
2017-05-31T00:01:13.814Z,23.62
2017-05-31T00:02:23.857Z,23.6
2017-05-31T00:03:34.267Z,23.56
2017-05-31T00:04:44.305Z,23.55
2017-05-31T00:05:54.034Z,23.59
2017-05-31T00:07:04.083Z,23.53
2017-05-31T00:08:14.124Z,23.57
2017-05-31T00:09:24.527Z,23.55
2017-05-31T00:10:34.878Z,23.55
2017-05-31T00:11:44.917Z,23.57
2017-05-31T00:12:55.015Z,23.55
2017-05-31T00:14:05.060Z,23.5
2017-05-31T00:15:15.416Z,23.53
2017-05-31T00:16:25.787Z,23.55
2017-05-31T00:17:35.819Z,23.53
2017-05-31T00:18:46.171Z,23.63
2017-05-31T00:19:56.209Z,23.52
2017-05-31T00:21:06.299Z,23.55
2017-05-31T00:22:16.663Z,23.48
2017-05-31T00:23:27.016Z,23.55
2017-05-31T00:24:37.056Z,23.53
2017-05-31T00:25:47.413Z,23.53
2017-05-31T00:26:57.507Z,23.53
2017-05-31T00:28:07.853Z,23.55
2017-05-31T00:29:17.892Z,23.55
2017-05-31T00:30:28.242Z,23.55
2017-05-31T00:31:38.291Z,23.59
2017-05-31T00:32:48.682Z,23.56
2017-05-31T00:33:58.735Z,23.5
2017-05-31T00:35:09.090Z,23.5
2017-05-31T00:36:19.447Z,23.52
2017-05-31T00:37:29.491Z,23.57
2017-05-31T00:38:39.901Z,23.52
2017-05-31T00:39:49.937Z,23.59
2017-05-31T00:41:00.286Z,23.59
2017-05-31T00:42:10.631Z,23.55
2017-05-31T00:43:20.683Z,23.55
2017-05-31T00:44:31.100Z,23.55
2017-05-31T00:45:41.126Z,23.47
2017-05-31T00:46:51.154Z,23.5
2017-05-31T00:48:01.199Z,23.45
2017-05-31T00:49:10.919Z,23.44
2017-05-31T00:50:20.709Z,23.35
2017-05-31T00:51:30.771Z,23.44
2017-05-31T00:52:41.122Z,23.34
2017-05-31T00:53:51.484Z,23.34
2017-05-31T00:55:01.827Z,23.35
2017-05-31T00:56:12.221Z,23.4
2017-05-31T00:57:21.931Z,23.41
2017-05-31T00:58:31.965Z,23.29
2017-05-31T00:59:42.002Z,23.35
2017-05-31T01:00:52.036Z,23.35
2017-05-31T01:02:02.382Z,23.32
2017-05-31T01:03:12.419Z,23.38
2017-05-31T01:04:22.464Z,23.44
2017-05-31T01:05:32.211Z,23.53
2017-05-31T01:06:42.558Z,23.44
2017-05-31T01:07:52.650Z,23.52
2017-05-31T01:09:03.017Z,23.53
2017-05-31T01:10:13.044Z,23.55
2017-05-31T01:11:23.407Z,23.52
2017-05-31T01:12:33.452Z,23.64
2017-05-31T01:13:43.892Z,23.62
2017-05-31T01:14:53.932Z,23.66
2017-05-31T01:16:04.292Z,23.66
2017-05-31T01:17:14.324Z,23.62
2017-05-31T01:18:24.686Z,23.66
2017-05-31T01:19:35.113Z,23.67
2017-05-31T01:20:45.454Z,23.71
2017-05-31T01:21:55.499Z,23.64
2017-05-31T01:23:05.542Z,23.71
2017-05-31T01:24:15.905Z,23.56
2017-05-31T01:25:26.247Z,23.62
2017-05-31T01:26:36.609Z,23.62
2017-05-31T01:27:46.644Z,23.62
2017-05-31T01:28:56.993Z,23.66
2017-05-31T01:30:07.038Z,23.64
2017-05-31T01:31:17.381Z,23.6
2017-05-31T01:32:27.726Z,23.6
2017-05-31T01:33:38.080Z,23.64
2017-05-31T01:34:48.426Z,23.62
2017-05-31T01:35:58.790Z,23.62
2017-05-31T01:37:09.196Z,23.71
2017-05-31T01:38:19.239Z,23.72
2017-05-31T01:39:29.278Z,23.63
2017-05-31T01:40:39.303Z,23.74
2017-05-31T01:41:49.339Z,23.67
2017-05-31T01:42:59.736Z,23.67
2017-05-31T01:44:10.091Z,23.62
2017-05-31T01:45:20.443Z,23.64
2017-05-31T01:46:30.810Z,23.59
2017-05-31T01:47:40.861Z,23.62
2017-05-31T01:48:51.254Z,23.62
2017-05-31T01:50:01.658Z,23.7
2017-05-31T01:51:12.001Z,23.77
2017-05-31T01:52:22.353Z,23.63
2017-05-31T01:53:32.395Z,23.63
2017-05-31T01:54:42.800Z,23.72
2017-05-31T01:55:52.838Z,23.7
2017-05-31T01:57:02.876Z,23.74
2017-05-31T01:58:12.913Z,23.75
2017-05-31T01:59:23.263Z,23.74
2017-05-31T02:00:33.354Z,23.78
2017-05-31T02:01:43.720Z,23.78
2017-05-31T02:02:53.759Z,23.75
2017-05-31T02:04:03.793Z,23.79
2017-05-31T02:05:13.824Z,23.77
2017-05-31T02:06:23.967Z,23.78
2017-05-31T02:07:34.016Z,23.84
2017-05-31T02:08:44.369Z,23.82
2017-05-31T02:09:54.733Z,23.9
2017-05-31T02:11:05.084Z,23.94
2017-05-31T02:12:15.187Z,23.97
2017-05-31T02:13:25.558Z,23.87
2017-05-31T02:14:35.921Z,24.07
2017-05-31T02:15:46.262Z,23.93
2017-05-31T02:16:56.311Z,23.93
2017-05-31T02:18:06.101Z,23.93
2017-05-31T02:19:16.468Z,23.9
2017-05-31T02:20:26.823Z,23.96
2017-05-31T02:21:37.188Z,23.99
2017-05-31T02:22:47.551Z,23.94
2017-05-31T02:23:57.947Z,23.96
2017-05-31T02:25:08.317Z,23.9
2017-05-31T02:26:18.668Z,23.92
2017-05-31T02:27:29.026Z,23.85
2017-05-31T02:28:39.405Z,23.93
2017-05-31T02:29:49.446Z,23.99
2017-05-31T02:30:59.815Z,23.89
2017-05-31T02:32:09.863Z,23.97
2017-05-31T02:33:19.909Z,23.97
2017-05-31T02:34:30.274Z,23.96
2017-05-31T02:35:39.744Z,24.03
2017-05-31T02:36:49.480Z,24.09
2017-05-31T02:37:59.833Z,24.08
2017-05-31T02:39:09.879Z,24.08
2017-05-31T02:40:20.241Z,24.07
2017-05-31T02:41:30.336Z,24.07
2017-05-31T02:42:40.684Z,24.03
2017-05-31T02:43:50.726Z,24.03
2017-05-31T02:45:01.079Z,23.96
2017-05-31T02:46:11.117Z,23.9
2017-05-31T02:47:21.209Z,23.85
2017-05-31T02:48:31.558Z,23.87
2017-05-31T02:49:41.609Z,23.79
2017-05-31T02:50:51.975Z,23.77
2017-05-31T02:52:02.350Z,23.82
2017-05-31T02:53:12.718Z,23.72
2017-05-31T02:54:23.066Z,23.71
2017-05-31T02:55:33.413Z,23.74
2017-05-31T02:56:43.770Z,23.79
2017-05-31T02:57:54.138Z,23.75
2017-05-31T02:59:04.553Z,23.77
2017-05-31T03:00:14.615Z,23.77
2017-05-31T03:01:24.963Z,23.81
2017-05-31T03:33:47.783Z,21.62
2017-05-31T03:34:57.823Z,21.55
2017-05-31T03:36:08.200Z,21.59
2017-05-31T03:37:18.555Z,21.71
2017-05-31T03:38:28.913Z,21.9
2017-05-31T03:39:38.959Z,21.86
2017-05-31T03:40:48.992Z,22.07
2017-05-31T03:41:59.024Z,22.27
2017-05-31T03:43:09.386Z,22.46
2017-05-31T03:44:19.733Z,22.48
2017-05-31T03:45:29.822Z,22.71
2017-05-31T03:46:40.185Z,22.84
2017-05-31T03:47:50.523Z,22.89
2017-05-31T03:49:00.574Z,23.09
2017-05-31T03:50:10.925Z,23.22
2017-05-31T03:51:21.679Z,23.55
2017-05-31T03:52:32.030Z,23.57
2017-05-31T03:53:42.397Z,23.62
2017-05-31T03:54:52.748Z,23.79
2017-05-31T03:56:02.791Z,23.89
2017-05-31T03:57:13.217Z,23.96
2017-05-31T03:58:22.934Z,24.07
2017-05-31T03:59:33.296Z,24.15
2017-05-31T04:00:43.701Z,24.27
2017-05-31T04:01:53.748Z,24.4
2017-05-31T04:03:04.161Z,24.52
2017-05-31T04:04:14.521Z,24.67
2017-05-31T04:05:24.565Z,24.82
2017-05-31T04:06:34.615Z,24.93
2017-05-31T04:07:44.964Z,25.09
2017-05-31T04:08:55.050Z,25.27
2017-05-31T04:10:05.414Z,25.48
2017-05-31T04:11:15.767Z,25.6
2017-05-31T04:12:25.826Z,25.85
2017-05-31T04:13:35.863Z,26.04
2017-05-31T04:14:45.914Z,26.15
2017-05-31T04:15:56.254Z,26.31
2017-05-31T04:17:06.617Z,26.42
2017-05-31T04:18:16.988Z,26.61
2017-05-31T04:19:27.341Z,26.78
2017-05-31T04:20:37.441Z,28.2
2017-05-31T04:21:47.792Z,28.64
2017-05-31T04:22:58.166Z,28.46
2017-05-31T04:24:08.522Z,28.35
2017-05-31T04:25:18.880Z,28.61
2017-05-31T04:26:28.940Z,28.48
2017-05-31T04:27:39.293Z,28.54
2017-05-31T04:28:49.660Z,28.43
2017-05-31T04:29:59.711Z,28.43
2017-05-31T04:31:09.764Z,28.73
2017-05-31T04:32:19.860Z,29.33
2017-05-31T04:33:29.951Z,30.09
2017-05-31T04:34:40.309Z,31.01
2017-05-31T04:35:50.351Z,30.77
2017-05-31T04:37:00.712Z,30.31
2017-05-31T04:38:11.127Z,30.03
2017-05-31T04:39:21.493Z,30.22
2017-05-31T04:40:31.527Z,30.42
2017-05-31T04:41:42.088Z,30.67
2017-05-31T04:42:52.134Z,30.37
2017-05-31T04:44:02.727Z,30.31
2017-05-31T04:45:13.100Z,30.64
2017-05-31T04:46:22.844Z,31.44
2017-05-31T04:47:32.887Z,32.1
2017-05-31T04:48:42.939Z,32.67
2017-05-31T04:49:53.358Z,33.02
2017-05-31T04:51:03.408Z,32.64
2017-05-31T04:52:13.449Z,32.37
2017-05-31T04:53:23.815Z,32.49
2017-05-31T04:54:34.188Z,32.84
2017-05-31T04:55:44.562Z,32.53
2017-05-31T04:56:54.917Z,31.86
2017-05-31T04:58:05.289Z,31.18
2017-05-31T04:59:15.641Z,30.6
2017-05-31T05:00:26.011Z,30.14
2017-05-31T05:01:36.410Z,29.84
2017-05-31T05:02:46.759Z,29.67
2017-05-31T05:03:56.803Z,29.47
2017-05-31T05:05:07.175Z,29.24
2017-05-31T05:06:17.225Z,28.98
2017-05-31T05:07:27.592Z,28.86
2017-05-31T05:08:37.967Z,28.67
2017-05-31T05:09:48.331Z,28.57
2017-05-31T05:10:58.712Z,28.53
2017-05-31T05:12:09.068Z,28.41
2017-05-31T05:13:19.148Z,28.42
2017-05-31T05:14:28.573Z,28.48
2017-05-31T05:15:38.929Z,28.64
2017-05-31T05:16:49.301Z,28.8
2017-05-31T05:17:59.668Z,29.24
2017-05-31T05:19:10.022Z,29.84
2017-05-31T05:20:20.070Z,30.26
2017-05-31T05:21:30.448Z,30.6
2017-05-31T05:22:40.819Z,31.01
2017-05-31T05:23:51.176Z,31.44
2017-05-31T05:25:01.590Z,31.43
2017-05-31T05:26:11.952Z,31.12
2017-05-31T05:27:22.308Z,31
2017-05-31T05:28:32.034Z,30.54
2017-05-31T05:29:42.396Z,30.45
2017-05-31T05:30:52.802Z,30.37
2017-05-31T05:32:02.915Z,30.28
2017-05-31T05:33:13.273Z,31.18
2017-05-31T05:34:23.206Z,31.94
2017-05-31T05:35:33.639Z,32.68
2017-05-31T05:36:44.042Z,33.41
2017-05-31T05:37:54.102Z,33.97
2017-05-31T05:39:04.452Z,34.41
2017-05-31T05:40:14.825Z,34.74
2017-05-31T05:41:25.196Z,35.04
2017-05-31T05:42:35.784Z,35.05
2017-05-31T05:43:46.133Z,35.11
2017-05-31T05:44:56.496Z,34.94
2017-05-31T05:46:06.862Z,34.61
2017-05-31T05:47:16.923Z,34.52
2017-05-31T05:48:27.306Z,34.34
2017-05-31T05:49:37.686Z,34.1
2017-05-31T05:50:48.054Z,34.26
2017-05-31T05:51:58.420Z,34.06
2017-05-31T05:53:08.486Z,33.85
2017-05-31T05:54:18.586Z,33.71
2017-05-31T05:55:28.319Z,33.9
2017-05-31T05:56:38.671Z,34.15
2017-05-31T05:57:49.023Z,34.03
2017-05-31T05:58:59.061Z,33.9
2017-05-31T06:00:09.480Z,33.99
2017-05-31T06:01:19.236Z,34.03
2017-05-31T06:02:29.290Z,34.02
2017-05-31T06:03:39.660Z,33.77
2017-05-31T06:04:50.031Z,33.73
2017-05-31T06:06:00.393Z,33.77
2017-05-31T06:07:10.837Z,33.84
2017-05-31T06:08:21.203Z,33.9
2017-05-31T06:09:31.569Z,33.85
2017-05-31T06:10:41.918Z,33.71
2017-05-31T06:11:52.289Z,33.66
2017-05-31T06:13:02.653Z,33.63
2017-05-31T06:14:13.006Z,33.59
2017-05-31T06:15:23.061Z,33.47
2017-05-31T06:16:33.417Z,33.28
2017-05-31T06:17:43.194Z,33.02
2017-05-31T06:18:53.238Z,32.72
2017-05-31T06:20:03.621Z,32.74
2017-05-31T06:21:13.995Z,32.83
2017-05-31T06:22:24.348Z,33.08
2017-05-31T06:23:34.727Z,33.08
2017-05-31T06:24:45.082Z,33.21
2017-05-31T06:25:55.452Z,33.18
2017-05-31T06:27:05.496Z,33.08
2017-05-31T06:28:15.846Z,33.08
2017-05-31T06:29:26.281Z,32.93
2017-05-31T06:30:35.394Z,32.96
2017-05-31T06:31:45.774Z,32.96
2017-05-31T06:32:56.136Z,32.96
2017-05-31T06:34:06.186Z,32.93
2017-05-31T06:35:16.599Z,32.86
2017-05-31T06:36:26.337Z,32.84
2017-05-31T06:37:36.393Z,32.83
2017-05-31T06:38:46.433Z,32.75
2017-05-31T06:39:56.799Z,32.65
2017-05-31T06:41:06.588Z,32.61
2017-05-31T06:42:16.314Z,32.42
2017-05-31T06:43:26.672Z,32.38
2017-05-31T06:44:37.031Z,32.01
2017-05-31T06:45:47.073Z,31.47
2017-05-31T06:46:57.379Z,31.19
2017-05-31T06:48:07.441Z,30.82
2017-05-31T06:49:17.486Z,30.67
2017-05-31T06:50:27.847Z,30.78
2017-05-31T06:51:38.212Z,31.03
2017-05-31T06:52:48.639Z,31.34
2017-05-31T06:53:58.430Z,31.44
2017-05-31T06:55:08.808Z,31.4
2017-05-31T06:56:18.846Z,31.5
2017-05-31T06:57:29.225Z,31.62
2017-05-31T06:58:39.626Z,31.65
2017-05-31T06:59:49.995Z,31.58
2017-05-31T07:01:00.366Z,31.58
2017-05-31T07:02:10.727Z,31.65
2017-05-31T07:03:20.774Z,31.59
2017-05-31T07:04:31.171Z,31.55
2017-05-31T07:05:41.521Z,31.53
2017-05-31T07:06:51.885Z,31.45
2017-05-31T07:08:02.251Z,31.53
2017-05-31T07:09:12.293Z,31.38
2017-05-31T07:10:22.702Z,31.3
2017-05-31T07:11:33.065Z,31.3
2017-05-31T07:12:43.423Z,31.26
2017-05-31T07:13:53.795Z,31.36
2017-05-31T07:15:04.158Z,31.31
2017-05-31T07:16:14.598Z,31.34
2017-05-31T07:17:24.964Z,31.3
2017-05-31T07:18:35.315Z,31.28
2017-05-31T07:19:45.680Z,31.37
2017-05-31T07:20:55.410Z,31.31
2017-05-31T07:22:05.820Z,31.38
2017-05-31T07:23:15.869Z,31.52
2017-05-31T07:24:26.236Z,31.44
2017-05-31T07:25:36.603Z,31.53
2017-05-31T07:26:46.965Z,31.58
2017-05-31T07:27:57.071Z,31.52
2017-05-31T07:29:07.111Z,31.49
2017-05-31T07:30:17.169Z,31.38
2017-05-31T07:31:27.552Z,31.41
2017-05-31T07:32:37.904Z,31.47
2017-05-31T07:33:47.971Z,31.47
2017-05-31T07:34:58.332Z,31.45
2017-05-31T07:36:08.705Z,31.5
2017-05-31T07:37:19.072Z,31.67
2017-05-31T07:38:29.458Z,31.62
2017-05-31T07:39:39.886Z,31.72
2017-05-31T07:40:50.249Z,31.78
2017-05-31T07:42:00.620Z,31.74
2017-05-31T07:43:10.035Z,31.7
2017-05-31T07:44:20.391Z,31.75
2017-05-31T07:45:30.507Z,31.74
2017-05-31T07:46:40.879Z,31.74
2017-05-31T07:47:51.245Z,31.77
2017-05-31T07:49:01.607Z,31.77
2017-05-31T07:50:11.970Z,31.8
2017-05-31T07:51:22.401Z,31.86
2017-05-31T07:52:32.453Z,31.94
2017-05-31T07:53:42.838Z,32.06
2017-05-31T07:54:53.201Z,32.03
2017-05-31T07:56:03.568Z,32.06
2017-05-31T07:57:13.939Z,32.06
2017-05-31T07:58:23.988Z,32.03
2017-05-31T07:59:34.349Z,32.15
2017-05-31T08:00:44.721Z,32.1
2017-05-31T08:01:55.078Z,32.23
2017-05-31T08:03:05.434Z,32.27
2017-05-31T08:04:15.793Z,32.31
2017-05-31T08:05:25.871Z,32.24
2017-05-31T08:06:36.234Z,32.35
2017-05-31T08:07:46.625Z,32.42
2017-05-31T08:08:56.732Z,32.35
2017-05-31T08:10:07.096Z,32.43
2017-05-31T08:11:17.481Z,32.38
2017-05-31T08:12:27.229Z,32.46
2017-05-31T08:13:37.277Z,32.52
2017-05-31T08:14:47.703Z,32.46
2017-05-31T08:15:58.065Z,32.5
2017-05-31T08:17:08.467Z,32.47
2017-05-31T08:18:18.811Z,32.46
2017-05-31T08:19:28.861Z,32.56
2017-05-31T08:20:38.914Z,32.69
2017-05-31T08:21:48.953Z,32.54
2017-05-31T08:22:58.689Z,32.57
2017-05-31T08:24:08.741Z,32.65
2017-05-31T08:25:19.117Z,32.69
2017-05-31T08:26:29.214Z,32.67
2017-05-31T08:27:39.270Z,32.68
2017-05-31T08:28:49.337Z,32.8
2017-05-31T08:29:59.702Z,32.87
2017-05-31T08:31:09.791Z,32.86
2017-05-31T08:32:19.897Z,32.89
2017-05-31T08:33:30.265Z,32.8
2017-05-31T08:34:40.627Z,32.74
2017-05-31T08:35:50.674Z,32.71
2017-05-31T08:37:01.039Z,32.8
2017-05-31T08:38:11.142Z,32.69
2017-05-31T08:39:21.507Z,32.74
2017-05-31T08:40:31.554Z,32.72
2017-05-31T08:41:41.921Z,32.79
2017-05-31T08:42:51.964Z,32.83
2017-05-31T08:44:02.372Z,32.8
2017-05-31T08:45:12.736Z,32.94
2017-05-31T08:46:22.780Z,33.08
2017-05-31T08:47:32.504Z,33.13
2017-05-31T08:48:42.571Z,33.31
2017-05-31T08:49:52.988Z,33.44
2017-05-31T08:51:02.723Z,33.62
2017-05-31T08:52:13.084Z,33.74
2017-05-31T08:53:23.448Z,33.87
2017-05-31T08:54:34.017Z,33.46
2017-05-31T08:55:44.488Z,33.63
2017-05-31T08:56:54.570Z,33.97
2017-05-31T08:58:04.905Z,34.24
2017-05-31T08:59:15.260Z,34.49
2017-05-31T09:00:25.650Z,34.89
2017-05-31T09:01:36.356Z,35.18
2017-05-31T09:02:46.401Z,35.34
2017-05-31T09:03:56.771Z,35.5
2017-05-31T09:05:06.811Z,35.69
2017-05-31T09:06:17.162Z,36.19
2017-05-31T09:07:27.264Z,36.41
2017-05-31T09:08:37.610Z,36.62
2017-05-31T09:09:47.991Z,36.93
2017-05-31T09:10:58.356Z,36.97
2017-05-31T09:12:08.422Z,36.88
2017-05-31T09:13:18.797Z,36.95
2017-05-31T09:14:29.156Z,37.07
2017-05-31T09:15:39.208Z,36.9
2017-05-31T09:16:49.572Z,37.27
2017-05-31T09:17:59.941Z,37.37
2017-05-31T09:19:10.035Z,37.31
2017-05-31T09:20:20.456Z,36.99
2017-05-31T09:21:30.807Z,36.75
2017-05-31T09:22:40.859Z,36.74
2017-05-31T09:23:50.610Z,36.74
2017-05-31T09:25:01.123Z,37.08
2017-05-31T09:26:11.479Z,37.31
2017-05-31T09:27:21.845Z,37.29
2017-05-31T09:28:32.216Z,37.44
2017-05-31T09:29:42.619Z,37.79
2017-05-31T09:30:52.717Z,37.96
2017-05-31T09:32:02.442Z,38.09
2017-05-31T09:33:12.805Z,37.99
2017-05-31T09:34:22.879Z,37.71
2017-05-31T09:35:32.999Z,37.51
2017-05-31T09:36:43.099Z,37.37
2017-05-31T09:37:53.152Z,37.22
2017-05-31T09:39:03.518Z,37.17
2017-05-31T09:40:13.891Z,37.04
2017-05-31T09:41:24.253Z,36.8
2017-05-31T09:42:34.664Z,36.77
2017-05-31T09:43:44.716Z,36.8
2017-05-31T09:44:54.771Z,36.92
2017-05-31T09:46:05.136Z,37
2017-05-31T09:47:14.874Z,37.07
2017-05-31T09:48:24.683Z,37.26
2017-05-31T09:49:35.054Z,37.3
2017-05-31T09:50:44.799Z,37.42
2017-05-31T09:51:55.180Z,37.64
2017-05-31T09:53:05.542Z,37.75
2017-05-31T09:54:15.967Z,38.02
2017-05-31T09:55:26.339Z,37.9
2017-05-31T09:56:36.393Z,37.81
2017-05-31T09:57:46.758Z,37.66
2017-05-31T09:58:57.114Z,37.39
2017-05-31T10:00:07.316Z,37.26
2017-05-31T10:01:17.064Z,36.74
2017-05-31T10:02:27.437Z,36.67
2017-05-31T10:03:37.494Z,36.62
2017-05-31T10:04:47.912Z,36.61
2017-05-31T10:05:57.968Z,36.44
2017-05-31T10:07:08.337Z,36.43
2017-05-31T10:08:18.723Z,36.65
2017-05-31T10:09:29.078Z,36.78
2017-05-31T10:10:39.451Z,36.84
2017-05-31T10:11:49.855Z,36.95
2017-05-31T10:13:00.008Z,36.99
2017-05-31T10:14:10.511Z,37.04
2017-05-31T10:15:20.558Z,36.96
2017-05-31T10:16:30.926Z,36.89
2017-05-31T10:17:41.033Z,37
2017-05-31T10:18:51.399Z,37.02
2017-05-31T10:20:01.439Z,37.04
2017-05-31T10:21:11.822Z,37.08
2017-05-31T10:22:22.200Z,37.09
2017-05-31T10:23:32.293Z,37.14
2017-05-31T10:24:42.655Z,37.24
2017-05-31T10:25:53.027Z,37.56
2017-05-31T10:27:03.401Z,38.05
2017-05-31T10:28:13.807Z,37.99
2017-05-31T10:29:24.225Z,38.18
2017-05-31T10:30:34.291Z,38.44
2017-05-31T10:31:44.654Z,38.56
2017-05-31T10:32:54.760Z,38.59
2017-05-31T10:34:05.135Z,38.59
2017-05-31T10:35:15.616Z,38.7
2017-05-31T10:36:25.991Z,38.73
2017-05-31T10:37:36.353Z,38.84
2017-05-31T10:38:46.716Z,38.85
2017-05-31T10:39:57.097Z,38.81
2017-05-31T10:41:07.228Z,38.8
2017-05-31T10:42:16.973Z,38.59
2017-05-31T10:43:27.029Z,38.46
2017-05-31T10:44:37.396Z,38.3
2017-05-31T10:45:47.456Z,38.05
2017-05-31T10:46:57.563Z,38.03
2017-05-31T10:48:07.937Z,37.54
2017-05-31T10:49:18.027Z,37.41
2017-05-31T10:50:28.412Z,37.36
2017-05-31T10:51:38.151Z,37.22
2017-05-31T10:52:48.584Z,36.7
2017-05-31T10:53:58.977Z,36.65
2017-05-31T10:55:09.054Z,36.67
2017-05-31T10:56:19.415Z,36.43
2017-05-31T10:57:29.785Z,36.49
2017-05-31T10:58:40.185Z,36.58
2017-05-31T10:59:50.228Z,36.58
2017-05-31T11:01:00.278Z,36.73
2017-05-31T11:02:10.329Z,36.73
2017-05-31T11:03:20.081Z,36.3
2017-05-31T11:04:30.489Z,36.33
2017-05-31T11:05:40.868Z,36.52
2017-05-31T11:06:51.237Z,36.59
2017-05-31T11:08:01.615Z,36.77
2017-05-31T11:09:11.682Z,36.84
2017-05-31T11:10:22.083Z,36.92
2017-05-31T11:11:32.450Z,37.05
2017-05-31T11:12:42.796Z,37.09
2017-05-31T11:13:53.160Z,37.12
2017-05-31T11:15:03.524Z,37.29
2017-05-31T11:16:13.621Z,37.37
2017-05-31T11:17:23.691Z,37.64
2017-05-31T11:18:33.754Z,37.48
2017-05-31T11:19:44.118Z,37.76
2017-05-31T11:20:54.180Z,38
2017-05-31T11:22:04.588Z,38.12
2017-05-31T11:23:14.971Z,38.21
2017-05-31T11:24:24.722Z,38.43
2017-05-31T11:25:35.115Z,38.43
2017-05-31T11:26:45.479Z,38.52
2017-05-31T11:27:55.866Z,38.59
2017-05-31T11:29:06.225Z,38.44
2017-05-31T11:30:16.606Z,37.94
2017-05-31T11:31:26.662Z,37.62
2017-05-31T11:32:36.720Z,37.34
2017-05-31T11:33:46.814Z,37.34
2017-05-31T11:34:56.859Z,37.27
2017-05-31T11:36:07.228Z,37.18
2017-05-31T11:37:17.625Z,37.72
2017-05-31T11:38:27.984Z,38.25
2017-05-31T11:39:38.390Z,38.73
2017-05-31T11:40:48.453Z,39.09
2017-05-31T11:41:58.822Z,39.09
2017-05-31T11:43:09.212Z,39.04
2017-05-31T11:44:19.577Z,38.84
2017-05-31T11:45:29.981Z,38.68
2017-05-31T11:46:40.346Z,38.39
2017-05-31T11:47:50.718Z,37.84
2017-05-31T11:49:01.109Z,37.34
2017-05-31T11:50:11.483Z,37.02
2017-05-31T11:51:21.894Z,36.81
2017-05-31T11:52:32.256Z,36.43
2017-05-31T11:53:42.628Z,36.05
2017-05-31T11:54:53.109Z,35.77
2017-05-31T11:56:03.472Z,35.52
2017-05-31T11:57:14.143Z,35.09
2017-05-31T11:58:24.214Z,34.74
2017-05-31T11:59:34.569Z,34.27
2017-05-31T12:00:44.942Z,33.92
2017-05-31T12:01:55.006Z,33.56
2017-05-31T12:03:05.123Z,33.37
2017-05-31T12:04:15.166Z,33.09
2017-05-31T12:05:24.911Z,32.93
2017-05-31T12:06:35.478Z,32.81
2017-05-31T12:07:45.513Z,32.53
2017-05-31T12:08:55.317Z,32.13
2017-05-31T12:10:05.352Z,32
2017-05-31T12:11:15.717Z,32.15
2017-05-31T12:12:25.762Z,32.09
2017-05-31T12:13:35.496Z,32.13
2017-05-31T12:14:45.591Z,32.08
2017-05-31T12:15:55.334Z,31.86
2017-05-31T12:17:05.373Z,31.86
2017-05-31T12:18:15.727Z,31.68
2017-05-31T12:19:26.091Z,31.7
2017-05-31T12:20:36.459Z,31.75
2017-05-31T12:21:46.507Z,31.8
2017-05-31T12:22:56.624Z,31.81
2017-05-31T12:24:07.005Z,31.97
2017-05-31T12:25:17.356Z,31.95
2017-05-31T12:26:27.749Z,31.8
2017-05-31T12:27:38.119Z,31.65
2017-05-31T12:28:48.480Z,31.4
2017-05-31T12:29:58.858Z,31.3
2017-05-31T12:31:08.583Z,31.01
2017-05-31T12:32:19.017Z,30.99
2017-05-31T12:33:29.060Z,30.88
2017-05-31T12:34:39.423Z,30.88
2017-05-31T12:35:49.797Z,30.88
2017-05-31T12:37:00.181Z,30.89
2017-05-31T12:38:10.314Z,30.99
2017-05-31T12:39:20.368Z,31.01
2017-05-31T12:40:30.739Z,31.03
2017-05-31T12:41:40.790Z,31
2017-05-31T12:42:51.167Z,31.04
2017-05-31T12:44:01.534Z,31.07
2017-05-31T12:45:11.579Z,31.06
2017-05-31T12:46:21.632Z,31.08
2017-05-31T12:47:32.001Z,31.1
2017-05-31T12:48:42.367Z,31.04
2017-05-31T12:49:52.727Z,31.16
2017-05-31T12:51:03.084Z,31.26
2017-05-31T12:52:13.464Z,31.38
2017-05-31T12:53:23.834Z,31.77
2017-05-31T12:54:34.242Z,31.98
2017-05-31T12:55:43.962Z,31.9
2017-05-31T12:56:53.998Z,31.74
2017-05-31T12:58:04.381Z,31.59
2017-05-31T12:59:14.427Z,31.36
2017-05-31T13:00:24.779Z,31.31
2017-05-31T13:01:35.144Z,31.06
2017-05-31T13:02:45.499Z,30.88
2017-05-31T13:03:55.857Z,30.7
2017-05-31T13:05:06.235Z,30.6
2017-05-31T13:06:16.292Z,30.32
2017-05-31T13:07:26.657Z,30.26
2017-05-31T13:08:36.711Z,30.18
2017-05-31T13:09:47.085Z,30.09
2017-05-31T13:10:57.434Z,30.02
2017-05-31T13:12:07.850Z,29.77
2017-05-31T13:13:17.893Z,29.67
2017-05-31T13:14:28.250Z,29.6
2017-05-31T13:15:38.316Z,29.54
2017-05-31T13:16:48.367Z,29.48
2017-05-31T13:17:58.776Z,29.38
2017-05-31T13:19:09.177Z,29.3
2017-05-31T13:20:19.532Z,29.36
2017-05-31T13:21:29.590Z,29.38
2017-05-31T13:22:39.953Z,29.35
2017-05-31T13:23:50.325Z,29.3
2017-05-31T13:25:00.386Z,29.18
2017-05-31T13:26:10.129Z,29.14
2017-05-31T13:27:20.253Z,29.03
2017-05-31T13:28:30.615Z,29.01
2017-05-31T13:29:41.046Z,28.91
2017-05-31T13:30:51.378Z,28.97
2017-05-31T13:32:01.736Z,28.85
2017-05-31T13:33:12.085Z,28.86
2017-05-31T13:34:22.450Z,28.91
2017-05-31T13:35:32.857Z,28.85
2017-05-31T13:36:43.213Z,28.82
2017-05-31T13:37:53.565Z,28.73
2017-05-31T13:39:03.917Z,28.7
2017-05-31T13:40:14.279Z,28.67
2017-05-31T13:41:24.685Z,28.65
2017-05-31T13:42:35.065Z,28.78
2017-05-31T13:43:45.408Z,28.82
2017-05-31T13:44:55.782Z,28.73
2017-05-31T13:46:06.133Z,28.83
2017-05-31T13:47:16.530Z,28.86
2017-05-31T13:48:26.917Z,28.86
2017-05-31T13:49:36.919Z,28.86
2017-05-31T13:50:47.281Z,28.95
2017-05-31T13:51:57.023Z,29.01
2017-05-31T13:53:07.441Z,29.06
2017-05-31T13:54:17.495Z,29.11
2017-05-31T13:55:27.607Z,29.21
2017-05-31T13:56:37.982Z,29.29
2017-05-31T13:57:48.010Z,29.33
2017-05-31T13:58:57.743Z,29.48
2017-05-31T14:00:07.769Z,29.48
2017-05-31T14:01:18.126Z,29.47
2017-05-31T14:02:28.473Z,29.55
2017-05-31T14:03:38.826Z,29.54
2017-05-31T14:04:49.246Z,29.58
2017-05-31T14:05:59.299Z,29.54
2017-05-31T14:07:09.655Z,29.54
2017-05-31T14:08:19.716Z,29.55
2017-05-31T14:09:30.074Z,29.63
2017-05-31T14:10:40.489Z,29.55
2017-05-31T14:11:50.849Z,29.51
2017-05-31T14:13:00.919Z,29.6
2017-05-31T14:14:11.284Z,29.54
2017-05-31T14:15:21.661Z,29.51
2017-05-31T14:16:31.443Z,29.54
2017-05-31T14:17:41.837Z,29.55
2017-05-31T14:18:52.265Z,29.58
2017-05-31T14:20:02.322Z,29.58
2017-05-31T14:21:12.670Z,29.51
2017-05-31T14:22:22.783Z,29.57
2017-05-31T14:23:33.170Z,29.52
2017-05-31T14:24:43.512Z,29.48
2017-05-31T14:25:53.557Z,29.52
2017-05-31T14:27:03.949Z,29.51
2017-05-31T14:28:14.366Z,29.5
2017-05-31T14:29:24.733Z,29.52
2017-05-31T14:30:35.147Z,29.52
2017-05-31T14:31:45.203Z,29.67
2017-05-31T14:32:55.589Z,29.63
2017-05-31T14:34:05.996Z,29.63
2017-05-31T14:35:16.042Z,29.6
2017-05-31T14:36:26.402Z,29.65
2017-05-31T14:37:36.813Z,29.73
2017-05-31T14:38:47.163Z,29.7
2017-05-31T14:39:57.198Z,29.75
2017-05-31T14:41:07.549Z,29.61
2017-05-31T14:42:17.926Z,29.6
2017-05-31T14:43:28.304Z,29.61
2017-05-31T14:44:38.335Z,29.67
2017-05-31T14:45:48.368Z,29.61
2017-05-31T14:46:58.786Z,29.61
2017-05-31T14:48:09.154Z,29.63
2017-05-31T14:49:19.494Z,29.5
2017-05-31T14:50:29.546Z,29.58
2017-05-31T14:51:39.601Z,29.52
2017-05-31T14:52:49.380Z,29.51
2017-05-31T14:53:59.814Z,29.57
2017-05-31T14:55:09.868Z,29.63
2017-05-31T14:56:19.922Z,29.61
2017-05-31T14:57:29.969Z,29.65
2017-05-31T14:58:40.408Z,29.75
2017-05-31T14:59:50.446Z,29.81
2017-05-31T15:01:00.178Z,29.89
2017-05-31T15:02:10.553Z,29.95
2017-05-31T15:03:20.594Z,29.94
2017-05-31T15:04:31.008Z,30.03
2017-05-31T15:05:41.053Z,30.1
2017-05-31T15:06:51.412Z,30.18
2017-05-31T15:08:01.845Z,30.19
2017-05-31T15:09:12.256Z,30.24
2017-05-31T15:10:22.630Z,30.35
2017-05-31T15:11:33.006Z,30.56
2017-05-31T15:12:43.374Z,30.88
2017-05-31T15:13:53.742Z,31.23
2017-05-31T15:15:04.103Z,31.44
2017-05-31T15:16:14.206Z,31.56
2017-05-31T15:17:24.606Z,31.74
2017-05-31T15:18:34.666Z,31.45
2017-05-31T15:19:45.038Z,31.41
2017-05-31T15:20:55.085Z,31.19
2017-05-31T15:22:05.495Z,31.28
2017-05-31T15:23:15.570Z,31.22
2017-05-31T15:24:25.940Z,31.13
2017-05-31T15:25:36.304Z,30.85
2017-05-31T15:26:46.661Z,30.63
2017-05-31T15:27:57.073Z,30.48
2017-05-31T15:29:07.116Z,30.35
2017-05-31T15:30:17.168Z,30.16
2017-05-31T15:31:27.568Z,30.1
2017-05-31T15:32:37.924Z,29.91
2017-05-31T15:33:48.327Z,30.06
2017-05-31T15:34:58.691Z,29.97
2017-05-31T15:36:08.454Z,29.88
2017-05-31T15:37:18.819Z,29.82
2017-05-31T15:38:29.194Z,29.77